Time;durP1;ratioP1;P1;durP2;ratioP2;P2;SDS_P1;SDS_P2;PMS_P1;PMS_P2;Temp;Humidity;BMP_temperature;BMP_pressure;BME280_temperature;BME280_humidity;BME280_pressure;Samples;Min_cycle;Max_cycle;Signal;HPM_P1;HPM_P2
2021/12/14 00:00:00;;;;;;;0.30;0.30;;;;;;;1.22;81.34;93629.22;5080366;28;20422;-37
2021/12/14 00:02:28;;;;;;;;;;;;;;;1.25;80.54;93633.72;5077597;28;20032;-38
2021/12/14 00:04:58;;;;;;;0.30;0.30;;;;;;;1.26;80.58;93640.63;5081023;28;20348;-38
2021/12/14 00:07:24;;;;;;;0.30;0.30;;;;;;;1.06;80.32;93640.00;5081675;28;20064;-38
2021/12/14 00:09:52;;;;;;;0.30;0.30;;;;;;;0.95;81.30;93639.91;5078577;28;20051;-38
2021/12/14 00:15:03;;;;;;;0.40;0.40;;;;;;;0.98;81.88;93647.06;5079085;28;20041;-38
2021/12/14 00:17:37;;;;;;;0.30;0.30;;;;;;;1.14;81.58;93651.91;5082513;28;20028;-38
2021/12/14 00:20:38;;;;;;;0.20;0.20;;;;;;;1.21;80.38;93644.03;5081341;28;20058;-39
2021/12/14 00:25:52;;;;;;;0.30;0.30;;;;;;;1.36;79.74;93654.78;5078128;28;20440;-38
2021/12/14 00:28:21;;;;;;;0.30;0.30;;;;;;;1.34;80.03;93652.53;5081000;28;20037;-38
2021/12/14 00:30:54;;;;;;;0.30;0.30;;;;;;;1.37;79.46;93654.31;5077623;28;20057;-39
2021/12/14 00:33:22;;;;;;;0.25;0.25;;;;;;;1.39;80.53;93654.56;5076910;28;20106;-39
2021/12/14 00:35:48;;;;;;;1.70;1.58;;;;;;;1.43;79.67;93655.06;5076044;28;20031;-39
2021/12/14 00:38:15;;;;;;;0.30;0.30;;;;;;;1.48;80.10;93657.09;5077314;28;20488;-39
2021/12/14 00:40:45;;;;;;;0.22;0.22;;;;;;;1.46;80.14;93658.81;5080250;28;20081;-38
2021/12/14 00:43:11;;;;;;;0.30;0.30;;;;;;;1.32;80.34;93638.69;5083079;28;20024;-38
2021/12/14 00:45:40;;;;;;;0.35;0.35;;;;;;;1.53;80.21;93661.84;5079570;28;20412;-37
2021/12/14 00:48:07;;;;;;;0.20;0.20;;;;;;;1.60;80.79;93666.09;5078207;28;20030;-38
2021/12/14 00:50:33;;;;;;;0.30;0.30;;;;;;;1.65;80.03;93659.16;5081468;28;20413;-39
2021/12/14 00:52:59;;;;;;;0.40;0.40;;;;;;;1.74;78.93;93659.72;5078043;28;20513;-38
2021/12/14 00:55:31;;;;;;;0.20;0.20;;;;;;;1.85;78.11;93664.47;5079271;28;20028;-39
2021/12/14 00:57:58;;;;;;;0.30;0.30;;;;;;;1.76;78.65;93654.53;5078403;28;20028;-38
2021/12/14 01:00:27;;;;;;;0.30;0.30;;;;;;;1.83;79.54;93661.50;5080091;28;20024;-38
2021/12/14 01:02:53;;;;;;;0.30;0.30;;;;;;;1.75;79.39;93653.06;5081172;28;20020;-38
2021/12/14 01:05:23;;;;;;;0.30;0.30;;;;;;;1.56;80.11;93648.50;5080934;28;20020;-38
2021/12/14 01:07:49;;;;;;;0.20;0.20;;;;;;;1.59;79.87;93655.66;5079830;28;20062;-38
2021/12/14 01:10:29;;;;;;;0.30;0.30;;;;;;;1.67;79.55;93651.28;5079576;28;20028;-38
2021/12/14 01:13:00;;;;;;;0.30;0.30;;;;;;;1.64;79.22;93652.25;5079638;28;20111;-39
2021/12/14 01:15:52;;;;;;;0.30;0.30;;;;;;;1.75;78.97;93655.03;5078623;28;20024;-39
2021/12/14 01:18:34;;;;;;;0.30;0.30;;;;;;;1.71;78.05;93654.53;5082125;28;20025;-39
2021/12/14 01:21:46;;;;;;;0.30;0.30;;;;;;;1.66;77.11;93653.25;5076844;28;20028;-39
2021/12/14 01:27:01;;;;;;;0.30;0.30;;;;;;;1.69;77.92;93637.94;5079177;28;20150;-39
2021/12/14 01:29:28;;;;;;;0.30;0.30;;;;;;;1.88;76.12;93658.06;5077407;28;20039;-39
2021/12/14 01:31:59;;;;;;;3.30;3.03;;;;;;;1.72;76.02;93658.72;5078784;28;20095;-38
2021/12/14 01:34:24;;;;;;;0.45;0.45;;;;;;;1.40;77.40;93658.03;5081434;28;20513;-39
2021/12/14 01:36:55;;;;;;;0.30;0.30;;;;;;;1.34;78.96;93659.97;5078133;28;20020;-39
2021/12/14 01:41:58;;;;;;;0.32;0.32;;;;;;;1.63;77.67;93665.09;5077169;28;20028;-39
2021/12/14 01:44:26;;;;;;;0.30;0.30;;;;;;;1.50;77.10;93662.81;5076566;28;20036;-39
2021/12/14 01:46:57;;;;;;;0.20;0.20;;;;;;;1.41;78.76;93657.53;5078017;28;20032;-38
2021/12/14 01:49:24;;;;;;;0.73;0.73;;;;;;;1.34;79.40;93662.69;5079504;28;20424;-38
2021/12/14 01:51:53;;;;;;;0.30;0.30;;;;;;;1.38;78.94;93658.53;5078535;28;20386;-38
2021/12/14 01:54:22;;;;;;;0.20;0.20;;;;;;;1.37;78.50;93659.75;5078260;28;20070;-38
2021/12/14 01:56:47;;;;;;;0.30;0.30;;;;;;;1.20;79.10;93637.13;5076741;28;20039;-38
2021/12/14 01:59:22;;;;;;;0.30;0.30;;;;;;;1.41;79.87;93659.50;5079178;28;20029;-38
2021/12/14 02:01:56;;;;;;;0.43;0.43;;;;;;;1.31;79.77;93647.34;5078782;28;20097;-39
2021/12/14 02:04:24;;;;;;;0.28;0.28;;;;;;;1.23;80.84;93659.88;5079063;28;20115;-38
2021/12/14 02:07:01;;;;;;;0.30;0.30;;;;;;;1.19;81.02;93657.38;5076807;28;20421;-38
2021/12/14 02:09:29;;;;;;;0.40;0.40;;;;;;;1.20;80.66;93649.97;5079302;28;20520;-38
2021/12/14 02:11:58;;;;;;;0.65;0.65;;;;;;;1.18;80.87;93649.72;5080804;28;20037;-38
2021/12/14 02:14:26;;;;;;;0.20;0.20;;;;;;;1.17;81.20;93646.25;5082341;28;20035;-38
2021/12/14 02:16:57;;;;;;;0.20;0.20;;;;;;;1.19;80.54;93651.22;5078888;28;20038;-38
2021/12/14 02:19:23;;;;;;;0.30;0.30;;;;;;;1.04;81.18;93640.44;5078049;28;20040;-39
2021/12/14 02:21:51;;;;;;;0.73;0.73;;;;;;;1.17;81.12;93648.97;5079854;28;20035;-38
2021/12/14 02:24:20;;;;;;;0.70;0.70;;;;;;;1.10;80.50;93638.53;5080052;28;20025;-38
2021/12/14 02:26:47;;;;;;;0.43;0.43;;;;;;;1.13;80.81;93653.88;5082907;28;20028;-38
2021/12/14 02:29:21;;;;;;;0.30;0.30;;;;;;;1.19;80.86;93648.50;5083210;28;20052;-39
2021/12/14 02:31:47;;;;;;;0.20;0.20;;;;;;;1.20;80.10;93655.41;5083848;28;20024;-38
2021/12/14 02:34:12;;;;;;;0.30;0.30;;;;;;;1.13;79.42;93645.72;5083450;28;20028;-38
2021/12/14 02:36:41;;;;;;;0.30;0.30;;;;;;;1.05;79.75;93650.13;5084047;28;20059;-39
2021/12/14 02:39:23;;;;;;;0.30;0.30;;;;;;;1.06;80.40;93654.31;5081267;28;20039;-38
2021/12/14 02:41:52;;;;;;;0.30;0.30;;;;;;;1.11;80.48;93648.19;5079898;28;20035;-39
2021/12/14 02:44:18;;;;;;;0.30;0.30;;;;;;;0.98;79.71;93628.03;5081769;28;20031;-39
2021/12/14 02:46:53;;;;;;;1.35;1.35;;;;;;;1.25;78.97;93660.16;5081989;28;20028;-40
2021/12/14 02:49:23;;;;;;;0.20;0.20;;;;;;;1.37;77.94;93661.72;5082766;28;20088;-37
2021/12/14 02:51:54;;;;;;;0.30;0.30;;;;;;;1.40;78.06;93655.31;5079704;28;20688;-38
2021/12/14 02:54:52;;;;;;;0.30;0.30;;;;;;;1.22;77.35;93647.50;5083623;28;20056;-38
2021/12/14 02:57:24;;;;;;;0.30;0.30;;;;;;;1.26;78.92;93653.47;5074419;28;20047;-39
2021/12/14 02:59:50;;;;;;;0.30;0.30;;;;;;;1.28;78.92;93657.19;5085640;28;20023;-38
2021/12/14 03:02:19;;;;;;;1.00;0.57;;;;;;;1.25;78.12;93660.16;5083261;28;20500;-38
2021/12/14 03:04:51;;;;;;;0.20;0.20;;;;;;;1.41;78.41;93659.50;5081188;28;20574;-39
2021/12/14 03:07:21;;;;;;;0.30;0.30;;;;;;;1.25;77.94;93657.44;5080541;28;20787;-38
2021/12/14 03:12:31;;;;;;;0.30;0.30;;;;;;;1.30;78.81;93665.63;5083778;28;20462;-38
2021/12/14 03:15:02;;;;;;;0.20;0.20;;;;;;;1.37;78.14;93670.63;5083905;28;20056;-39
2021/12/14 03:17:27;;;;;;;0.28;0.28;;;;;;;1.23;77.38;93663.38;5078215;28;20054;-39
2021/12/14 03:19:59;;;;;;;0.20;0.20;;;;;;;1.22;77.95;93672.00;5081203;28;20024;-38
2021/12/14 03:22:32;;;;;;;0.30;0.30;;;;;;;1.23;78.10;93665.34;5081668;28;20753;-38
2021/12/14 03:24:59;;;;;;;0.25;0.25;;;;;;;1.05;78.95;93654.78;5080648;28;20579;-38
2021/12/14 03:27:25;;;;;;;0.73;0.73;;;;;;;1.30;78.69;93676.50;5084846;28;20047;-38
2021/12/14 03:29:51;;;;;;;0.22;0.22;;;;;;;1.30;78.15;93664.91;5082068;28;20428;-38
2021/12/14 03:32:16;;;;;;;0.30;0.30;;;;;;;1.30;77.18;93667.63;5081730;28;20103;-38
2021/12/14 03:34:42;;;;;;;0.45;0.45;;;;;;;1.23;78.98;93685.13;5083058;28;20489;-38
2021/12/14 03:37:12;;;;;;;0.40;0.40;;;;;;;1.25;78.17;93677.22;5080540;28;20071;-39
2021/12/14 03:39:47;;;;;;;0.30;0.30;;;;;;;1.27;78.47;93688.38;5083441;28;20031;-38
2021/12/14 03:42:21;;;;;;;0.50;0.50;;;;;;;1.33;78.51;93686.44;5078089;28;20029;-38
2021/12/14 03:44:55;;;;;;;0.30;0.30;;;;;;;1.45;78.99;93682.53;5080639;28;20052;-38
2021/12/14 03:47:31;;;;;;;0.20;0.20;;;;;;;1.53;78.19;93693.75;5080617;28;20102;-38
2021/12/14 03:50:01;;;;;;;0.43;0.43;;;;;;;1.36;78.77;93704.50;5082540;28;20035;-38
2021/12/14 03:52:30;;;;;;;0.45;0.45;;;;;;;1.47;78.30;93693.69;5079001;28;20126;-38
2021/12/14 03:54:58;;;;;;;0.30;0.30;;;;;;;1.38;78.45;93688.44;5080375;28;20643;-38
2021/12/14 03:57:24;;;;;;;0.30;0.30;;;;;;;1.33;78.91;93689.16;5078606;28;20123;-38
2021/12/14 03:59:50;;;;;;;0.40;0.40;;;;;;;1.37;79.38;93686.94;5083080;28;20557;-38
2021/12/14 04:02:17;;;;;;;0.20;0.20;;;;;;;1.22;79.18;93688.31;5079119;28;20032;-38
2021/12/14 04:05:03;;;;;;;0.30;0.30;;;;;;;1.19;79.21;93690.00;5079215;28;20058;-38
2021/12/14 04:07:29;;;;;;;0.88;0.88;;;;;;;1.19;78.54;93687.28;5081851;28;20032;-38
2021/12/14 04:09:54;;;;;;;1.95;1.38;;;;;;;1.30;78.88;93683.94;5079561;28;20032;-38
2021/12/14 04:12:21;;;;;;;0.32;0.32;;;;;;;1.39;79.27;93687.19;5085213;28;20039;-38
2021/12/14 04:14:51;;;;;;;0.30;0.30;;;;;;;1.39;79.06;93687.19;5079494;28;20546;-39
2021/12/14 04:17:17;;;;;;;0.30;0.30;;;;;;;1.35;76.96;93694.84;5080768;28;20028;-38
2021/12/14 04:19:43;;;;;;;0.43;0.43;;;;;;;1.26;77.59;93697.75;5077775;28;20032;-39
2021/12/14 04:22:16;;;;;;;0.43;0.43;;;;;;;1.30;77.38;93702.97;5082320;28;20078;-38
2021/12/14 04:24:44;;;;;;;0.52;0.52;;;;;;;1.24;78.11;93705.63;5080124;28;20058;-38
2021/12/14 04:27:15;;;;;;;0.25;0.25;;;;;;;1.14;79.08;93700.84;5079791;28;20513;-38
2021/12/14 04:29:40;;;;;;;1.90;1.75;;;;;;;1.01;79.51;93703.97;5081576;28;20428;-39
2021/12/14 04:32:09;;;;;;;0.57;0.57;;;;;;;1.17;79.95;93700.63;5082798;28;20027;-38
2021/12/14 04:34:35;;;;;;;0.30;0.30;;;;;;;1.33;78.93;93710.16;5080049;28;20043;-38
2021/12/14 04:37:02;;;;;;;0.30;0.30;;;;;;;1.10;80.16;93708.47;5077986;28;20028;-38
2021/12/14 04:39:35;;;;;;;0.20;0.20;;;;;;;1.16;80.74;93710.03;5081297;28;20031;-39
2021/12/14 04:53:10;;;;;;;0.40;0.40;;;;;;;1.36;77.92;93718.09;5079023;28;20083;-38
2021/12/14 04:55:40;;;;;;;0.30;0.30;;;;;;;1.51;77.28;93710.56;5080265;28;20115;-38
2021/12/14 04:58:06;;;;;;;0.20;0.20;;;;;;;1.50;77.68;93709.06;5079266;28;20116;-38
2021/12/14 05:00:38;;;;;;;2.58;2.38;;;;;;;1.58;78.06;93714.81;5080445;28;20572;-39
2021/12/14 05:03:18;;;;;;;1.92;1.83;;;;;;;1.61;77.25;93716.53;5080631;28;20409;-39
2021/12/14 05:05:50;;;;;;;3.35;1.58;;;;;;;1.36;76.90;93720.06;5080434;28;20100;-38
2021/12/14 05:10:46;;;;;;;0.30;0.30;;;;;;;1.26;78.62;93724.19;5080253;28;20485;-39
2021/12/14 05:13:12;;;;;;;0.30;0.30;;;;;;;1.05;78.65;93707.22;5082231;28;20028;-38
2021/12/14 05:15:39;;;;;;;0.30;0.30;;;;;;;1.18;79.24;93726.59;5076794;28;21376;-39
2021/12/14 05:18:13;;;;;;;0.28;0.28;;;;;;;1.18;77.54;93723.88;5079713;28;20028;-39
2021/12/14 05:20:43;;;;;;;0.30;0.30;;;;;;;1.29;76.93;93732.13;5077094;28;20046;-39
2021/12/14 05:23:09;;;;;;;1.40;1.30;;;;;;;1.34;77.88;93730.69;5078184;28;20547;-39
2021/12/14 05:25:37;;;;;;;0.85;0.85;;;;;;;1.42;78.08;93732.50;5077089;28;20016;-39
2021/12/14 05:28:04;;;;;;;0.20;0.20;;;;;;;1.21;78.34;93752.81;5078547;28;20023;-39
2021/12/14 05:30:33;;;;;;;0.20;0.20;;;;;;;1.10;79.17;93739.16;5080447;28;20031;-39
2021/12/14 05:33:00;;;;;;;;;;;;;;;1.11;78.98;93748.78;5078011;28;20169;-39
2021/12/14 05:35:26;;;;;;;0.22;0.22;;;;;;;1.15;79.81;93749.31;5077393;28;19912;-39
2021/12/14 05:37:55;;;;;;;0.20;0.20;;;;;;;1.15;79.07;93743.88;5078879;28;20672;-39
2021/12/14 05:41:10;;;;;;;1.02;0.98;;;;;;;1.19;79.25;93741.69;5075848;28;20032;-38
2021/12/14 05:43:19;;;;;;;0.28;0.28;;;;;;;1.24;79.01;93746.44;5073875;28;20455;-39
2021/12/14 05:45:53;;;;;;;0.75;0.75;;;;;;;1.30;79.09;93749.94;5079026;28;20021;-39
2021/12/14 05:48:32;;;;;;;0.40;0.40;;;;;;;1.37;79.06;93756.91;5076369;28;20100;-38
2021/12/14 05:51:07;;;;;;;0.20;0.20;;;;;;;1.38;79.08;93761.13;5078856;28;20047;-39
2021/12/14 05:53:38;;;;;;;0.22;0.22;;;;;;;1.28;77.44;93752.41;5078560;28;20090;-39
2021/12/14 05:56:11;;;;;;;0.30;0.30;;;;;;;1.05;78.27;93764.31;5078525;28;20034;-39
2021/12/14 05:58:38;;;;;;;0.20;0.20;;;;;;;1.30;77.27;93757.38;5078819;28;20036;-39
2021/12/14 06:01:07;;;;;;;0.30;0.30;;;;;;;1.34;77.55;93772.22;5083381;28;20522;-40
2021/12/14 06:03:34;;;;;;;;;;;;;;;1.37;78.41;93765.84;5084150;28;20157;-40
2021/12/14 06:06:01;;;;;;;0.30;0.30;;;;;;;1.16;78.81;93774.53;5082651;28;19920;-39
2021/12/14 06:08:30;;;;;;;0.40;0.40;;;;;;;1.14;79.83;93777.00;5080920;28;20520;-40
2021/12/14 06:10:56;;;;;;;0.95;0.95;;;;;;;1.14;80.09;93779.72;5084479;28;20025;-38
2021/12/14 06:13:43;;;;;;;0.70;0.70;;;;;;;1.19;79.23;93777.03;5083757;28;20527;-40
2021/12/14 06:16:24;;;;;;;0.20;0.20;;;;;;;1.23;78.75;93774.88;5081428;28;20027;-39
2021/12/14 06:18:50;;;;;;;0.30;0.30;;;;;;;1.05;79.72;93779.88;5079726;28;20070;-39
2021/12/14 06:21:18;;;;;;;0.30;0.30;;;;;;;0.99;80.15;93790.69;5079644;28;20110;-39
2021/12/14 06:23:44;;;;;;;0.85;0.85;;;;;;;1.17;79.46;93784.19;5080191;28;20032;-39
2021/12/14 06:26:13;;;;;;;0.30;0.30;;;;;;;1.17;79.14;93782.19;5078021;28;20115;-38
2021/12/14 06:28:38;;;;;;;0.20;0.20;;;;;;;1.26;79.11;93797.63;5078899;28;20457;-40
2021/12/14 06:31:04;;;;;;;1.95;0.93;;;;;;;1.08;79.19;93790.53;5079752;28;20027;-39
2021/12/14 06:33:32;;;;;;;0.38;0.38;;;;;;;1.19;78.77;93787.19;5080613;28;20548;-38
2021/12/14 06:36:00;;;;;;;0.30;0.30;;;;;;;1.07;77.77;93796.44;5080884;28;20024;-38
2021/12/14 06:38:31;;;;;;;0.30;0.30;;;;;;;1.16;77.63;93802.47;5076393;28;20549;-39
2021/12/14 06:40:57;;;;;;;0.20;0.20;;;;;;;1.24;76.83;93805.50;5079585;28;20536;-38
2021/12/14 06:43:37;;;;;;;0.28;0.28;;;;;;;1.18;77.01;93808.19;5074572;28;20036;-40
2021/12/14 06:46:08;;;;;;;0.30;0.30;;;;;;;1.09;78.64;93815.75;5076017;28;20032;-39
2021/12/14 06:48:40;;;;;;;0.30;0.30;;;;;;;1.08;77.91;93817.72;5076700;28;20024;-38
2021/12/14 06:51:15;;;;;;;0.52;0.52;;;;;;;1.19;79.54;93812.38;5077211;28;20056;-39
2021/12/14 06:53:41;;;;;;;0.20;0.20;;;;;;;1.19;78.32;93809.66;5076228;28;20041;-39
2021/12/14 06:56:10;;;;;;;0.30;0.30;;;;;;;1.24;79.35;93810.94;5079223;28;20039;-39
2021/12/14 06:58:57;;;;;;;0.30;0.30;;;;;;;1.44;78.16;93814.38;5082801;28;20052;-39
2021/12/14 07:01:26;;;;;;;0.28;0.28;;;;;;;1.66;78.50;93813.81;5076708;28;20055;-39
2021/12/14 07:04:01;;;;;;;0.85;0.85;;;;;;;1.61;76.46;93817.22;5080054;28;20024;-39
2021/12/14 07:06:40;;;;;;;1.50;1.40;;;;;;;1.62;77.71;93807.09;5079482;28;20038;-39
2021/12/14 07:09:13;;;;;;;0.20;0.20;;;;;;;1.58;78.32;93812.78;5079162;28;20027;-39
2021/12/14 07:11:47;;;;;;;1.15;1.05;;;;;;;1.47;78.73;93815.38;5076650;28;20539;-39
2021/12/14 07:14:44;;;;;;;0.55;0.55;;;;;;;1.35;78.23;93816.50;5077796;28;20070;-39
2021/12/14 07:17:42;;;;;;;0.30;0.30;;;;;;;1.56;76.64;93817.19;5073676;28;20167;-39
2021/12/14 07:20:39;;;;;;;0.20;0.20;;;;;;;1.50;77.17;93822.56;5076918;28;20076;-39
2021/12/14 07:23:19;;;;;;;0.20;0.20;;;;;;;1.44;77.67;93827.22;5073975;28;20033;-43
2021/12/14 07:25:51;;;;;;;0.77;0.77;;;;;;;1.59;78.38;93829.81;5078109;28;20031;-40
2021/12/14 07:28:17;;;;;;;0.93;0.93;;;;;;;1.74;76.86;93833.16;5075539;28;20031;-41
2021/12/14 07:30:59;;;;;;;4.28;2.05;;;;;;;1.84;76.53;93827.06;5075072;28;20031;-40
2021/12/14 07:33:31;;;;;;;2.08;1.23;;;;;;;1.88;75.51;93835.03;5076008;28;20032;-40
2021/12/14 07:36:11;;;;;;;1.10;1.10;;;;;;;1.81;75.58;93830.00;5076871;28;20090;-40
2021/12/14 07:39:05;;;;;;;0.68;0.68;;;;;;;1.96;75.51;93839.56;5080094;28;20021;-39
2021/12/14 07:41:42;;;;;;;0.85;0.85;;;;;;;2.07;74.10;93841.59;5075918;28;20044;-38
2021/12/14 07:44:12;;;;;;;0.20;0.20;;;;;;;2.07;74.68;93847.81;5076278;28;20036;-39
2021/12/14 07:46:45;;;;;;;0.20;0.20;;;;;;;2.13;75.51;93845.09;5077141;28;20043;-38
2021/12/14 07:49:21;;;;;;;0.40;0.40;;;;;;;2.08;74.52;93845.84;5074940;28;20103;-38
2021/12/14 07:51:49;;;;;;;1.48;1.40;;;;;;;2.14;74.01;93847.34;5076416;28;20562;-40
2021/12/14 07:54:35;;;;;;;0.82;0.82;;;;;;;2.12;73.44;93849.81;5077449;28;20044;-40
2021/12/14 07:57:03;;;;;;;3.13;1.33;;;;;;;2.17;72.67;93851.06;5076853;28;20028;-38
2021/12/14 07:59:36;;;;;;;0.30;0.30;;;;;;;1.91;74.21;93847.66;5077037;28;20539;-39
2021/12/14 08:02:28;;;;;;;3.10;1.40;;;;;;;1.90;74.24;93848.91;5080715;28;20079;-39
2021/12/14 08:05:11;;;;;;;0.20;0.20;;;;;;;1.78;74.71;93856.22;5077699;28;20095;-39
2021/12/14 08:07:40;;;;;;;0.20;0.20;;;;;;;1.92;75.21;93852.63;5078781;28;20031;-39
2021/12/14 08:10:16;;;;;;;0.20;0.20;;;;;;;1.89;76.15;93858.28;5077051;28;20505;-39
2021/12/14 08:12:50;;;;;;;0.30;0.30;;;;;;;1.98;76.10;93860.84;5078513;28;20589;-39
2021/12/14 08:15:18;;;;;;;0.35;0.35;;;;;;;1.79;76.33;93867.88;5073959;28;20032;-39
2021/12/14 08:17:46;;;;;;;0.35;0.35;;;;;;;1.83;76.87;93860.97;5076100;28;20412;-39
2021/12/14 08:20:21;;;;;;;1.38;1.27;;;;;;;1.90;76.30;93867.97;5074931;28;20041;-39
2021/12/14 08:22:46;;;;;;;0.20;0.20;;;;;;;1.70;76.42;93846.25;5074018;28;20024;-38
2021/12/14 08:25:15;;;;;;;0.20;0.20;;;;;;;2.03;76.31;93873.75;5075233;28;20096;-38
2021/12/14 08:27:41;;;;;;;0.60;0.60;;;;;;;1.87;75.55;93850.63;5072968;28;20435;-39
2021/12/14 08:30:13;;;;;;;0.20;0.20;;;;;;;1.92;76.29;93868.22;5075121;28;20122;-39
2021/12/14 08:32:39;;;;;;;0.20;0.20;;;;;;;1.98;76.51;93863.56;5076766;28;20028;-38
2021/12/14 08:35:10;;;;;;;0.20;0.20;;;;;;;1.97;75.65;93867.53;5080214;28;20028;-38
2021/12/14 08:37:43;;;;;;;1.05;1.05;;;;;;;2.16;76.67;93868.66;5074446;28;20040;-38
2021/12/14 08:40:17;;;;;;;0.20;0.20;;;;;;;2.13;74.50;93867.66;5073462;28;20032;-38
2021/12/14 08:43:03;;;;;;;0.20;0.20;;;;;;;2.16;74.25;93865.94;5077320;28;20493;-38
2021/12/14 08:45:46;;;;;;;0.20;0.20;;;;;;;2.25;74.67;93863.75;5074782;28;20069;-38
2021/12/14 08:48:19;;;;;;;0.40;0.40;;;;;;;2.36;73.91;93862.38;5075873;28;20060;-38
2021/12/14 08:50:55;;;;;;;0.20;0.20;;;;;;;2.24;74.47;93856.09;5073788;28;20034;-38
2021/12/14 08:53:24;;;;;;;0.22;0.22;;;;;;;2.32;74.30;93857.13;5078219;28;20052;-38
2021/12/14 08:55:51;;;;;;;;;;;;;;;2.39;74.35;93845.78;5074670;28;20111;-38
2021/12/14 08:58:16;;;;;;;0.20;0.20;;;;;;;2.47;74.01;93835.91;5074168;28;19916;-38
2021/12/14 09:00:50;;;;;;;0.20;0.20;;;;;;;2.49;74.65;93844.34;5077255;28;20028;-38
2021/12/14 09:03:32;;;;;;;0.20;0.20;;;;;;;2.65;72.20;93838.25;5076283;28;20034;-38
2021/12/14 09:06:02;;;;;;;0.68;0.68;;;;;;;2.55;73.59;93833.50;5074489;28;20024;-38
2021/12/14 09:08:27;;;;;;;0.30;0.30;;;;;;;2.56;74.11;93838.44;5076829;28;20128;-38
2021/12/14 09:10:54;;;;;;;0.30;0.30;;;;;;;2.60;74.03;93840.97;5076972;28;20111;-38
2021/12/14 09:13:20;;;;;;;1.85;1.75;;;;;;;2.39;72.95;93842.31;5075742;28;20399;-38
2021/12/14 09:15:53;;;;;;;0.32;0.32;;;;;;;2.37;74.61;93845.53;5075353;28;20024;-38
2021/12/14 09:18:20;;;;;;;0.35;0.35;;;;;;;2.38;75.27;93836.13;5074051;28;20660;-38
2021/12/14 09:21:10;;;;;;;0.30;0.30;;;;;;;2.53;75.44;93838.69;5075461;28;20531;-38
2021/12/14 09:23:40;;;;;;;0.85;0.85;;;;;;;2.58;74.70;93833.25;5072028;28;20036;-38
2021/12/14 09:26:09;;;;;;;1.80;1.70;;;;;;;2.59;73.27;93834.75;5066998;28;20074;-38
2021/12/14 09:28:35;;;;;;;;;;;;;;;2.53;72.94;93836.72;5075686;28;20040;-38
2021/12/14 09:31:08;;;;;;;0.50;0.50;;;;;;;2.44;73.68;93828.72;5071735;28;19920;-39
2021/12/14 09:33:36;;;;;;;0.30;0.30;;;;;;;2.45;73.71;93827.47;5073236;28;20123;-38
2021/12/14 09:36:10;;;;;;;3.15;2.17;;;;;;;2.46;73.05;93823.53;5073949;28;20036;-38
2021/12/14 09:38:47;;;;;;;0.20;0.20;;;;;;;2.45;72.81;93816.56;5077620;28;20556;-38
2021/12/14 09:41:15;;;;;;;0.43;0.43;;;;;;;2.41;73.78;93821.50;5072392;28;20037;-38
2021/12/14 09:43:42;;;;;;;2.85;2.63;;;;;;;2.36;73.89;93818.78;5075702;28;20685;-38
2021/12/14 09:46:09;;;;;;;0.30;0.30;;;;;;;2.38;72.84;93808.88;5074691;28;20040;-37
2021/12/14 09:48:38;;;;;;;0.55;0.55;;;;;;;2.44;73.81;93814.34;5075953;28;20067;-37
2021/12/14 09:51:08;;;;;;;0.20;0.20;;;;;;;2.45;74.42;93805.69;5071755;28;20031;-37
2021/12/14 09:53:37;;;;;;;1.63;0.63;;;;;;;2.55;73.35;93812.44;5072595;28;20076;-37
2021/12/14 09:56:04;;;;;;;0.20;0.20;;;;;;;2.55;74.18;93798.81;5074943;28;20048;-37
2021/12/14 09:58:36;;;;;;;0.20;0.20;;;;;;;2.41;73.60;93799.72;5076272;28;20416;-37
2021/12/14 10:01:13;;;;;;;1.08;1.08;;;;;;;2.57;73.57;93801.78;5071997;28;20532;-37
2021/12/14 10:03:40;;;;;;;0.20;0.20;;;;;;;2.66;73.76;93804.31;5076188;28;20031;-37
2021/12/14 10:06:08;;;;;;;0.30;0.30;;;;;;;2.46;74.23;93798.25;5077774;28;20032;-37
2021/12/14 10:08:43;;;;;;;0.40;0.40;;;;;;;2.47;74.21;93797.03;5077449;28;20028;-37
2021/12/14 10:11:37;;;;;;;0.20;0.20;;;;;;;2.60;74.86;93800.06;5079415;28;20032;-37
2021/12/14 10:14:05;;;;;;;0.45;0.45;;;;;;;2.63;74.01;93804.53;5074764;28;20081;-37
2021/12/14 10:16:31;;;;;;;0.30;0.30;;;;;;;2.57;75.21;93784.69;5075790;28;20033;-37
2021/12/14 10:19:04;;;;;;;6.70;2.70;;;;;;;2.59;73.87;93793.13;5077743;28;20050;-37
2021/12/14 10:21:35;;;;;;;5.35;4.32;;;;;;;2.77;73.95;93790.72;5075342;28;20029;-37
2021/12/14 10:24:02;;;;;;;3.85;3.45;;;;;;;2.74;73.00;93788.97;5076354;28;20624;-37
2021/12/14 10:26:30;;;;;;;10.45;7.13;;;;;;;2.99;73.22;93788.06;5076107;28;20032;-37
2021/12/14 10:28:57;;;;;;;11.80;7.93;;;;;;;3.23;72.27;93784.91;5078153;28;20386;-37
2021/12/14 10:31:39;;;;;;;4.07;3.25;;;;;;;3.46;72.95;93782.97;5075541;28;20532;-37
2021/12/14 10:34:14;;;;;;;3.35;2.05;;;;;;;3.58;71.72;93787.94;5074469;28;20028;-37
2021/12/14 10:36:45;;;;;;;2.63;2.42;;;;;;;3.69;69.97;93781.72;5075803;28;20035;-37
2021/12/14 10:39:38;;;;;;;5.28;4.78;;;;;;;3.89;69.96;93778.75;5076167;28;20513;-37
2021/12/14 10:44:59;;;;;;;4.90;3.72;;;;;;;3.84;67.58;93780.25;5075012;28;20035;-37
2021/12/14 10:47:28;;;;;;;2.97;2.67;;;;;;;3.84;68.73;93784.97;5076578;28;20024;-37
2021/12/14 10:49:55;;;;;;;4.45;3.35;;;;;;;3.77;68.34;93777.25;5079357;28;20107;-37
2021/12/14 10:52:27;;;;;;;6.95;4.40;;;;;;;3.79;70.21;93775.53;5078621;28;20503;-37
2021/12/14 10:54:58;;;;;;;8.75;4.75;;;;;;;3.71;67.53;93757.41;5077199;28;20693;-37
2021/12/14 10:57:28;;;;;;;4.55;2.88;;;;;;;3.67;68.30;93774.03;5076519;28;20039;-37
2021/12/14 10:59:55;;;;;;;5.18;3.10;;;;;;;3.67;68.02;93784.22;5079793;28;20457;-37
2021/12/14 11:02:23;;;;;;;5.35;2.67;;;;;;;3.43;69.07;93778.47;5078321;28;20058;-37
2021/12/14 11:04:56;;;;;;;6.40;4.18;;;;;;;3.56;70.04;93768.56;5077965;28;20035;-37
2021/12/14 11:07:43;;;;;;;5.70;2.92;;;;;;;3.83;68.71;93767.81;5076568;28;20028;-37
2021/12/14 11:10:35;;;;;;;5.43;2.92;;;;;;;3.88;69.26;93776.53;5076884;28;20044;-37
2021/12/14 11:13:05;;;;;;;6.05;4.60;;;;;;;4.12;69.38;93768.53;5078314;28;20032;-37
2021/12/14 11:15:36;;;;;;;7.88;6.03;;;;;;;4.42;68.61;93766.72;5077014;28;20032;-37
2021/12/14 11:18:09;;;;;;;10.35;7.05;;;;;;;4.65;67.17;93770.16;5074788;28;20094;-37
2021/12/14 11:20:37;;;;;;;9.70;6.20;;;;;;;4.74;65.02;93770.63;5077156;28;20417;-37
2021/12/14 11:23:05;;;;;;;5.88;4.53;;;;;;;4.83;65.72;93769.59;5076514;28;20119;-37
2021/12/14 11:25:46;;;;;;;10.38;7.40;;;;;;;4.82;65.01;93755.19;5076258;28;20123;-37
2021/12/14 11:28:23;;;;;;;8.48;5.90;;;;;;;4.88;65.20;93766.84;5077136;28;20043;-37
2021/12/14 11:30:53;;;;;;;5.03;3.90;;;;;;;4.85;65.46;93764.38;5078215;28;20028;-37
2021/12/14 11:33:26;;;;;;;8.80;4.93;;;;;;;4.80;66.01;93770.59;5078744;28;20111;-37
2021/12/14 11:35:58;;;;;;;3.95;3.33;;;;;;;4.95;65.65;93765.56;5076678;28;20062;-37
2021/12/14 11:38:48;;;;;;;8.65;6.10;;;;;;;4.76;65.53;93764.66;5077681;28;20058;-37
2021/12/14 11:41:26;;;;;;;12.93;7.45;;;;;;;4.74;65.34;93762.44;5074394;28;20044;-37
2021/12/14 11:43:56;;;;;;;4.20;3.67;;;;;;;4.65;66.64;93765.44;5077413;28;20039;-37
2021/12/14 11:46:23;;;;;;;4.20;3.53;;;;;;;4.61;66.80;93764.97;5076571;28;20029;-37
2021/12/14 11:48:49;;;;;;;8.50;5.78;;;;;;;4.32;67.64;93758.06;5075109;28;20708;-37
2021/12/14 11:51:14;;;;;;;9.60;6.28;;;;;;;4.18;66.99;93761.81;5073840;28;20032;-37
2021/12/14 11:53:48;;;;;;;18.33;10.00;;;;;;;4.13;67.09;93765.31;5076257;28;20068;-37
2021/12/14 11:56:18;;;;;;;11.25;7.65;;;;;;;4.02;68.12;93765.34;5076244;28;20028;-37
2021/12/14 11:58:54;;;;;;;4.95;4.18;;;;;;;3.89;68.90;93754.19;5076045;28;20119;-37
2021/12/14 12:01:46;;;;;;;10.30;6.45;;;;;;;3.92;69.85;93761.34;5075843;28;20949;-37
2021/12/14 12:04:21;;;;;;;29.10;13.50;;;;;;;4.10;68.24;93754.63;5075496;28;20621;-37
2021/12/14 12:09:38;;;;;;;28.88;14.05;;;;;;;4.13;68.27;93759.88;5078451;28;20041;-38
2021/12/14 12:12:06;;;;;;;15.23;8.80;;;;;;;4.18;67.28;93752.91;5075053;28;20042;-37
2021/12/14 12:14:49;;;;;;;12.35;7.38;;;;;;;3.99;68.91;93754.66;5075662;28;20027;-37
2021/12/14 12:17:23;;;;;;;8.73;6.40;;;;;;;3.93;68.46;93762.09;5076278;28;20170;-37
2021/12/14 12:20:18;;;;;;;12.65;8.02;;;;;;;4.13;68.53;93759.09;5076982;28;20106;-38
2021/12/14 12:22:47;;;;;;;13.93;9.25;;;;;;;4.03;67.95;93763.34;5073189;28;20090;-38
2021/12/14 12:25:38;;;;;;;13.63;7.88;;;;;;;4.03;68.49;93761.34;5075341;28;20487;-38
2021/12/14 12:28:11;;;;;;;11.18;8.00;;;;;;;3.89;68.52;93748.72;5072338;28;20036;-38
2021/12/14 12:30:49;;;;;;;30.60;21.70;;;;;;;4.02;68.54;93748.94;5076312;28;20106;-38
2021/12/14 12:33:30;;;;;;;4.25;3.85;;;;;;;4.02;67.97;93745.47;5076787;28;20032;-38
2021/12/14 12:36:04;;;;;;;8.00;3.97;;;;;;;4.03;68.75;93746.97;5074875;28;20118;-38